createdAt,value
2023-03-20T00:02:06.922Z,99.95
2023-03-20T00:04:34.285Z,116.28
2023-03-20T00:07:01.766Z,66.32
2023-03-20T00:09:28.845Z,139.40
2023-03-20T00:11:56.466Z,137.48
2023-03-20T00:14:25.073Z,86.65
2023-03-20T00:16:52.686Z,104.60
2023-03-20T00:19:26.060Z,81.07
2023-03-20T00:21:54.448Z,54.25
2023-03-20T00:24:22.425Z,214.90
2023-03-20T00:26:51.557Z,206.02
2023-03-20T00:29:26.415Z,188.57
2023-03-20T00:31:54.925Z,178.57
2023-03-20T00:34:24.072Z,299.02
2023-03-20T00:36:51.879Z,166.95
2023-03-20T00:39:19.250Z,378.45
2023-03-20T00:42:01.017Z,89.03
2023-03-20T00:44:34.022Z,377.02
2023-03-20T00:47:11.537Z,129.75
2023-03-20T00:49:38.646Z,127.15
2023-03-20T00:52:06.776Z,326.15
2023-03-20T00:54:33.775Z,436.85
2023-03-20T00:57:04.277Z,473.52
2023-03-20T00:59:36.320Z,447.83
2023-03-20T01:02:04.357Z,249.63
2023-03-20T01:04:39.528Z,242.65
2023-03-20T01:07:10.913Z,630.08
2023-03-20T01:09:37.915Z,314.45
2023-03-20T01:12:05.835Z,403.42
2023-03-20T01:14:32.966Z,386.20
2023-03-20T01:17:00.047Z,110.97
2023-03-20T01:19:27.133Z,399.27
2023-03-20T01:21:54.274Z,250.63
2023-03-20T01:24:21.446Z,115.03
2023-03-20T01:26:49.396Z,549.33
2023-03-20T01:29:27.775Z,373.35
2023-03-20T01:31:55.467Z,273.90
2023-03-20T01:34:25.533Z,327.67
2023-03-20T01:36:54.790Z,106.80
2023-03-20T01:39:24.643Z,264.75
2023-03-20T01:41:53.216Z,370.10
2023-03-20T01:44:27.350Z,448.75
2023-03-20T01:46:58.379Z,390.80
2023-03-20T01:49:26.533Z,241.55
2023-03-20T01:51:57.203Z,132.15
2023-03-20T01:55:35.564Z,433.38
2023-03-20T01:58:07.917Z,438.60
2023-03-20T02:00:36.866Z,351.33
2023-03-20T02:03:08.258Z,172.77
2023-03-20T02:06:01.367Z,427.80
2023-03-20T02:08:50.818Z,451.25
2023-03-20T02:11:20.592Z,580.75
2023-03-20T02:13:48.101Z,594.30
2023-03-20T02:16:16.959Z,426.33
2023-03-20T02:18:56.480Z,273.08
2023-03-20T02:21:37.960Z,479.73
2023-03-20T02:24:24.210Z,349.25
2023-03-20T02:27:04.030Z,245.32
2023-03-20T02:30:15.574Z,272.08
2023-03-20T02:33:01.292Z,499.70
2023-03-20T02:36:00.037Z,469.48
2023-03-20T02:39:05.604Z,654.05
2023-03-20T02:41:48.118Z,473.60
2023-03-20T02:44:45.545Z,276.13
2023-03-20T02:47:31.912Z,688.83
2023-03-20T02:50:17.012Z,510.67
2023-03-20T02:53:10.356Z,230.10
2023-03-20T02:56:11.746Z,243.50
2023-03-20T02:58:55.537Z,379.20
2023-03-20T03:01:52.666Z,335.95
2023-03-20T03:04:26.360Z,284.75
2023-03-20T03:06:56.124Z,111.72
2023-03-20T03:09:30.733Z,260.33
2023-03-20T03:12:10.754Z,437.50
2023-03-20T03:14:53.801Z,102.95
2023-03-20T03:17:24.678Z,354.10
2023-03-20T03:19:56.110Z,514.33
2023-03-20T03:22:24.579Z,574.42
2023-03-20T03:24:54.104Z,612.13
2023-03-20T03:27:21.460Z,433.33
2023-03-20T03:29:56.745Z,475.45
2023-03-20T03:32:29.715Z,526.90
2023-03-20T03:34:57.831Z,537.58
2023-03-20T03:38:04.082Z,627.45
2023-03-20T03:40:51.896Z,560.88
2023-03-20T03:43:21.553Z,672.40
2023-03-20T03:45:55.159Z,630.92
2023-03-20T03:48:26.888Z,453.77
2023-03-20T03:50:57.596Z,212.05
2023-03-20T03:53:36.821Z,603.13
2023-03-20T03:56:08.999Z,409.08
2023-03-20T03:59:09.171Z,575.45
2023-03-20T04:01:38.668Z,159.30
2023-03-20T04:04:09.800Z,672.58
2023-03-20T04:06:37.632Z,494.08
2023-03-20T04:09:06.608Z,640.13
2023-03-20T04:11:35.874Z,571.65
2023-03-20T04:14:03.101Z,525.35
2023-03-20T04:16:31.251Z,562.63
2023-03-20T04:18:58.573Z,565.53
2023-03-20T04:21:25.979Z,556.05
2023-03-20T04:23:52.957Z,326.73
2023-03-20T04:26:22.620Z,614.72
2023-03-20T04:28:50.517Z,573.80
2023-03-20T04:31:41.890Z,219.95
2023-03-20T04:34:32.228Z,357.80
2023-03-20T04:37:25.392Z,289.45
2023-03-20T04:40:06.354Z,193.70
2023-03-20T04:42:33.730Z,419.65
2023-03-20T04:45:05.027Z,315.45
2023-03-20T04:47:32.181Z,458.60
2023-03-20T04:49:59.229Z,357.80
2023-03-20T04:52:26.389Z,319.45
2023-03-20T04:54:53.368Z,431.33
2023-03-20T04:57:20.446Z,276.50
2023-03-20T04:59:47.755Z,256.42
2023-03-20T05:02:15.267Z,445.05
2023-03-20T05:04:43.110Z,433.45
2023-03-20T05:07:10.966Z,396.88
2023-03-20T05:09:50.786Z,293.27
2023-03-20T05:12:18.971Z,696.72
2023-03-20T05:14:46.010Z,246.00
2023-03-20T05:17:36.583Z,413.77
2023-03-20T05:20:12.576Z,514.42
2023-03-20T05:23:06.434Z,527.28
2023-03-20T05:25:53.958Z,493.58
2023-03-20T05:28:41.400Z,535.95
2023-03-20T05:35:43.226Z,326.05
2023-03-20T05:38:28.985Z,247.75
2023-03-20T05:41:14.213Z,581.13
2023-03-20T05:44:01.581Z,650.50
2023-03-20T05:46:51.681Z,535.80
2023-03-20T05:49:34.917Z,498.00
2023-03-20T05:52:04.958Z,725.38
2023-03-20T05:54:58.071Z,406.60
2023-03-20T05:57:39.380Z,705.50
2023-03-20T06:00:39.199Z,621.28
2023-03-20T06:03:32.245Z,646.17
2023-03-20T06:06:10.287Z,661.60
2023-03-20T06:08:37.262Z,546.05
2023-03-20T06:11:05.911Z,607.70
2023-03-20T06:13:36.799Z,204.07
2023-03-20T06:16:05.054Z,521.35
2023-03-20T06:18:32.270Z,595.55
2023-03-20T06:20:59.461Z,282.73
2023-03-20T06:23:29.047Z,462.58
2023-03-20T06:25:56.390Z,532.88
2023-03-20T06:28:23.653Z,523.03
2023-03-20T06:30:58.934Z,584.58
2023-03-20T06:33:26.592Z,417.08
2023-03-20T06:36:01.277Z,463.05
2023-03-20T06:38:31.005Z,368.65
2023-03-20T06:41:00.188Z,740.75
2023-03-20T06:43:28.516Z,492.45
2023-03-20T06:45:55.546Z,552.03
2023-03-20T06:48:26.246Z,488.48
2023-03-20T06:50:53.959Z,299.70
2023-03-20T06:53:24.676Z,533.13
2023-03-20T06:55:58.889Z,621.78
2023-03-20T06:58:25.991Z,549.70
2023-03-20T07:00:54.798Z,655.83
2023-03-20T07:03:22.110Z,371.27
2023-03-20T07:05:51.022Z,376.80
2023-03-20T07:08:19.311Z,408.77
2023-03-20T07:10:47.019Z,108.00
2023-03-20T07:13:15.279Z,231.32
2023-03-20T07:15:57.454Z,597.60
2023-03-20T07:18:30.268Z,288.30
2023-03-20T07:21:04.247Z,447.48
2023-03-20T07:23:34.627Z,190.52
2023-03-20T07:26:03.588Z,596.05
2023-03-20T07:28:31.164Z,363.75
2023-03-20T07:31:20.770Z,492.27
2023-03-20T07:33:49.844Z,597.67
2023-03-20T07:36:18.025Z,355.58
2023-03-20T07:38:45.477Z,222.65
2023-03-20T07:41:13.198Z,336.90
2023-03-20T07:43:45.752Z,173.82
2023-03-20T07:46:15.581Z,291.17
2023-03-20T07:48:42.752Z,123.90
2023-03-20T07:51:09.875Z,160.15
2023-03-20T07:53:37.192Z,67.13
2023-03-20T07:56:04.857Z,161.10
2023-03-20T07:58:32.086Z,409.10
2023-03-20T08:01:03.198Z,314.50
2023-03-20T08:03:30.614Z,125.90
2023-03-20T08:05:57.891Z,206.80
2023-03-20T08:08:24.892Z,246.88
2023-03-20T08:10:51.881Z,137.00
2023-03-20T08:13:19.014Z,58.72
2023-03-20T08:15:47.393Z,183.95
2023-03-20T08:18:14.497Z,71.57
2023-03-20T08:20:41.850Z,26.42
2023-03-20T08:23:08.907Z,31.67
2023-03-20T08:25:36.185Z,36.90
2023-03-20T08:28:04.225Z,47.70
2023-03-20T08:30:32.074Z,31.95
2023-03-20T08:32:59.283Z,29.73
2023-03-20T08:35:33.372Z,32.05
2023-03-20T08:38:01.725Z,28.92
2023-03-20T08:41:01.221Z,33.33
2023-03-20T08:43:28.349Z,30.02
2023-03-20T08:45:55.819Z,33.45
2023-03-20T08:48:23.091Z,33.20
2023-03-20T08:50:50.280Z,27.23
2023-03-20T08:53:17.316Z,28.35
2023-03-20T08:55:52.253Z,29.70
2023-03-20T08:58:20.575Z,23.92
2023-03-20T09:00:47.830Z,25.15
2023-03-20T09:03:16.772Z,27.42
2023-03-20T09:05:45.610Z,34.35
2023-03-20T09:08:13.379Z,26.95
2023-03-20T09:10:43.020Z,26.80
2023-03-20T09:13:26.066Z,25.23
2023-03-20T09:15:55.287Z,25.00
2023-03-20T09:18:23.469Z,30.27
2023-03-20T09:20:51.082Z,31.00
2023-03-20T09:23:18.699Z,26.70
2023-03-20T09:25:47.159Z,24.73
2023-03-20T09:28:14.367Z,27.70
2023-03-20T09:30:43.646Z,29.40
2023-03-20T09:33:11.579Z,25.58
2023-03-20T09:35:38.995Z,27.15
2023-03-20T09:38:06.868Z,28.85
2023-03-20T09:40:40.061Z,26.38
2023-03-20T09:43:31.817Z,27.27
2023-03-20T10:17:20.433Z,23.87
2023-03-20T10:20:09.856Z,25.13
2023-03-20T10:22:42.189Z,29.48
2023-03-20T10:25:24.306Z,29.55
2023-03-20T10:28:04.484Z,27.30
2023-03-20T10:31:06.297Z,32.65
2023-03-20T10:33:51.878Z,24.92
2023-03-20T10:36:36.089Z,25.73
2023-03-20T10:39:17.126Z,25.90
2023-03-20T10:41:53.319Z,22.95
2023-03-20T10:44:39.083Z,26.73
2023-03-20T10:47:12.173Z,25.05
2023-03-20T10:49:46.600Z,29.58
2023-03-20T10:52:36.258Z,23.48
2023-03-20T10:55:37.639Z,22.50
2023-03-20T10:58:26.767Z,25.77
2023-03-20T11:00:56.358Z,22.15
2023-03-20T11:03:28.025Z,20.45
2023-03-20T11:06:10.656Z,26.67
2023-03-20T11:08:43.226Z,30.15
2023-03-20T11:11:10.894Z,21.35
2023-03-20T11:13:43.744Z,16.73
2023-03-20T11:16:23.113Z,17.92
2023-03-20T11:18:52.572Z,20.40
2023-03-20T11:21:28.568Z,19.23
2023-03-20T11:23:56.197Z,23.80
2023-03-20T11:26:40.781Z,21.92
2023-03-20T11:29:17.644Z,21.67
2023-03-20T11:31:44.805Z,17.42
2023-03-20T11:34:14.791Z,21.02
2023-03-20T11:37:21.129Z,18.13
2023-03-20T11:39:59.620Z,25.60
2023-03-20T11:42:30.503Z,26.45
2023-03-20T11:45:00.127Z,16.92
2023-03-20T11:47:29.317Z,19.08
2023-03-20T11:49:59.799Z,25.25
2023-03-20T11:53:35.835Z,27.38
2023-03-20T11:56:13.499Z,17.02
2023-03-20T11:59:10.573Z,21.05
2023-03-20T12:01:58.303Z,24.65
2023-03-20T12:04:34.122Z,19.08
2023-03-20T12:07:13.264Z,20.05
2023-03-20T12:09:42.783Z,29.98
2023-03-20T12:12:19.187Z,18.90
2023-03-20T12:14:56.034Z,24.67
2023-03-20T12:17:54.577Z,17.80
2023-03-20T12:20:37.095Z,20.17
2023-03-20T12:23:31.399Z,24.38
2023-03-20T12:26:04.365Z,27.52
2023-03-20T12:28:46.497Z,27.00
2023-03-20T12:31:30.805Z,26.83
2023-03-20T12:34:35.827Z,27.77
2023-03-20T12:37:03.021Z,19.05
2023-03-20T12:39:41.622Z,20.70
2023-03-20T12:42:11.620Z,17.10
2023-03-20T12:45:01.489Z,24.45
2023-03-20T12:47:53.473Z,28.40
2023-03-20T12:50:23.330Z,19.55
2023-03-20T12:53:59.967Z,22.08
2023-03-20T12:56:41.703Z,18.70
2023-03-20T12:59:08.652Z,21.25
2023-03-20T13:02:08.090Z,28.42
2023-03-20T13:05:07.177Z,23.10
2023-03-20T13:08:02.010Z,21.63
2023-03-20T13:10:41.790Z,25.13
2023-03-20T13:13:56.122Z,29.38
2023-03-20T13:16:33.619Z,27.30
2023-03-20T13:19:08.196Z,19.40
2023-03-20T13:21:46.022Z,19.08
2023-03-20T13:25:22.590Z,40.83
2023-03-20T13:28:15.863Z,19.35
2023-03-20T13:31:06.823Z,39.83
2023-03-20T13:33:39.735Z,23.50
2023-03-20T13:36:37.240Z,27.25
2023-03-20T13:39:18.345Z,28.90
2023-03-20T13:41:48.289Z,27.35
2023-03-20T13:44:21.076Z,22.20
2023-03-20T13:46:52.315Z,22.55
2023-03-20T13:49:34.134Z,27.40
2023-03-20T13:52:19.648Z,21.23
2023-03-20T13:55:19.961Z,35.28
2023-03-20T13:58:03.940Z,25.08
2023-03-20T14:01:03.088Z,19.67
2023-03-20T14:03:37.231Z,27.70
2023-03-20T14:06:50.166Z,34.33
2023-03-20T14:09:31.233Z,22.45
2023-03-20T14:12:18.352Z,18.55
2023-03-20T14:17:27.593Z,21.38
2023-03-20T14:19:56.665Z,30.58
2023-03-20T14:22:35.673Z,21.85
2023-03-20T14:25:08.879Z,26.42
2023-03-20T14:27:53.267Z,15.93
2023-03-20T14:30:32.509Z,23.40
2023-03-20T14:33:06.346Z,22.33
2023-03-20T14:35:38.775Z,24.35
2023-03-20T14:38:29.898Z,21.58
2023-03-20T14:41:11.962Z,26.30
2023-03-20T14:43:51.217Z,30.15
2023-03-20T14:46:31.694Z,25.05
2023-03-20T14:50:09.086Z,14.93
2023-03-20T14:52:44.958Z,27.13
2023-03-20T14:55:30.851Z,27.00
2023-03-20T14:58:03.253Z,22.05
2023-03-20T15:00:36.439Z,24.60
2023-03-20T15:03:14.131Z,23.05
2023-03-20T15:05:42.388Z,26.13
2023-03-20T15:08:24.917Z,25.25
2023-03-20T15:10:56.701Z,19.50
2023-03-20T15:13:25.937Z,21.08
2023-03-20T15:16:07.130Z,19.83
2023-03-20T15:18:51.057Z,24.27
2023-03-20T15:22:26.809Z,20.95
2023-03-20T15:24:56.884Z,26.80
2023-03-20T15:27:29.821Z,25.55
2023-03-20T15:30:00.431Z,14.25
2023-03-20T15:32:27.478Z,29.33
2023-03-20T15:34:54.716Z,19.70
2023-03-20T15:37:25.086Z,27.10
2023-03-20T15:39:56.874Z,25.25
2023-03-20T15:42:25.651Z,20.15
2023-03-20T15:45:22.113Z,26.27
2023-03-20T15:47:49.081Z,24.45
2023-03-20T15:50:16.711Z,21.73
2023-03-20T15:52:53.197Z,31.38
2023-03-20T15:55:23.266Z,24.33
2023-03-20T15:57:54.119Z,17.75
2023-03-20T16:00:44.244Z,29.45
2023-03-20T16:03:17.110Z,25.85
2023-03-20T16:05:45.678Z,26.02
2023-03-20T16:08:24.337Z,35.38
2023-03-20T16:10:57.386Z,31.88
2023-03-20T16:13:25.440Z,21.88
2023-03-20T16:15:54.600Z,23.33
2023-03-20T16:18:22.233Z,19.33
2023-03-20T16:20:58.111Z,26.65
2023-03-20T16:23:38.730Z,20.80
2023-03-20T16:26:08.958Z,21.40
2023-03-20T16:28:38.052Z,18.33
2023-03-20T16:31:29.631Z,21.48
2023-03-20T16:34:07.950Z,23.98
2023-03-20T16:36:37.519Z,21.92
2023-03-20T16:39:04.454Z,24.17
2023-03-20T16:41:45.081Z,21.85
2023-03-20T16:44:18.255Z,16.60
2023-03-20T16:47:01.631Z,23.48
2023-03-20T16:49:34.803Z,22.30
2023-03-20T16:52:05.343Z,17.10
2023-03-20T16:54:36.542Z,21.38
2023-03-20T16:57:09.621Z,19.80
2023-03-20T17:00:20.210Z,22.38
2023-03-20T17:03:13.534Z,21.27
2023-03-20T17:06:04.626Z,16.02
2023-03-20T17:08:42.030Z,22.42
2023-03-20T17:11:33.629Z,26.50
2023-03-20T17:14:01.399Z,17.65
2023-03-20T17:16:28.989Z,22.02
2023-03-20T17:19:01.578Z,21.67
2023-03-20T17:21:30.054Z,25.50
2023-03-20T17:23:57.573Z,19.30
2023-03-20T17:26:24.809Z,18.20
2023-03-20T17:28:51.826Z,18.23
2023-03-20T17:31:19.501Z,22.38
2023-03-20T17:33:46.941Z,25.73
2023-03-20T17:36:25.634Z,18.83
2023-03-20T17:38:53.396Z,18.30
2023-03-20T17:41:21.268Z,17.90
2023-03-20T17:44:20.471Z,21.75
2023-03-20T17:46:57.701Z,19.27
2023-03-20T17:49:27.751Z,25.25
2023-03-20T17:51:55.948Z,13.60
2023-03-20T17:54:22.997Z,14.20
2023-03-20T17:56:50.046Z,21.80
2023-03-20T17:59:17.089Z,18.08
2023-03-20T18:05:39.404Z,24.02
2023-03-20T18:08:14.124Z,18.60
2023-03-20T18:10:41.975Z,22.60
2023-03-20T18:13:09.124Z,13.35
2023-03-20T18:15:38.329Z,18.95
2023-03-20T18:18:06.137Z,16.23
2023-03-20T18:20:35.088Z,21.60
2023-03-20T18:23:02.308Z,16.73
2023-03-20T18:25:30.280Z,21.35
2023-03-20T18:27:59.298Z,17.50
2023-03-20T18:30:38.830Z,15.90
2023-03-20T18:33:06.408Z,16.85
2023-03-20T18:35:34.592Z,20.73
2023-03-20T18:38:02.143Z,15.55
2023-03-20T18:40:38.399Z,21.92
2023-03-20T18:43:06.016Z,14.35
2023-03-20T18:45:33.035Z,20.38
2023-03-20T18:48:03.834Z,15.10
2023-03-20T18:50:33.976Z,15.45
2023-03-20T18:53:04.328Z,17.73
2023-03-20T18:55:32.230Z,20.17
2023-03-20T18:57:59.641Z,17.95
2023-03-20T19:00:36.130Z,18.02
2023-03-20T19:05:31.538Z,16.85
2023-03-20T19:08:00.139Z,22.95
2023-03-20T19:10:39.501Z,11.88
2023-03-20T19:13:07.798Z,16.20
2023-03-20T19:15:37.427Z,22.75
2023-03-20T19:18:15.583Z,13.02
2023-03-20T19:20:48.255Z,24.08
2023-03-20T19:23:17.632Z,21.73
2023-03-20T19:25:47.607Z,22.85
2023-03-20T19:28:39.061Z,23.65
2023-03-20T19:31:09.748Z,26.50
2023-03-20T19:33:38.529Z,18.15
2023-03-20T19:36:06.926Z,14.45
2023-03-20T19:38:34.619Z,21.98
2023-03-20T19:41:03.887Z,16.05
2023-03-20T19:43:30.976Z,17.63
2023-03-20T19:45:59.227Z,16.38
2023-03-20T19:48:47.019Z,16.08
2023-03-20T19:51:21.765Z,13.60
2023-03-20T19:53:49.938Z,14.23
2023-03-20T19:56:19.495Z,14.73
2023-03-20T19:58:47.547Z,15.48
2023-03-20T20:01:19.979Z,20.48
2023-03-20T20:03:48.342Z,19.92
2023-03-20T20:06:16.003Z,15.18
2023-03-20T20:08:48.267Z,19.90
2023-03-20T20:11:19.056Z,19.08
2023-03-20T20:16:40.153Z,18.23
2023-03-20T20:19:07.726Z,18.58
2023-03-20T20:27:52.606Z,11.32
2023-03-20T20:30:21.063Z,12.98
2023-03-20T20:32:48.174Z,19.08
2023-03-20T20:35:41.930Z,24.65
2023-03-20T20:38:40.454Z,19.92
2023-03-20T20:43:39.275Z,9.98
2023-03-20T20:46:04.743Z,17.88
2023-03-20T20:48:32.373Z,13.82
2023-03-20T20:51:01.340Z,18.55
2023-03-20T20:54:37.718Z,15.63
2023-03-20T20:57:04.800Z,7.72
2023-03-20T20:59:32.080Z,15.90
2023-03-20T21:01:59.257Z,15.90
2023-03-20T21:04:45.250Z,15.75
2023-03-20T21:07:13.313Z,22.92
2023-03-20T21:09:41.544Z,16.95
2023-03-20T21:12:22.685Z,15.65
2023-03-20T21:14:57.625Z,18.95
2023-03-20T21:17:25.920Z,23.02
2023-03-20T21:19:53.020Z,17.50
2023-03-20T21:22:22.462Z,14.95
2023-03-20T21:24:53.799Z,14.73
2023-03-20T21:27:26.014Z,9.52
2023-03-20T21:29:53.038Z,18.90
2023-03-20T21:32:21.743Z,10.30
2023-03-20T21:34:49.665Z,9.32
2023-03-20T21:40:09.233Z,11.77
2023-03-20T21:42:37.090Z,19.13
2023-03-20T21:46:06.670Z,30.80
2023-03-20T21:48:30.665Z,20.25
2023-03-20T21:58:17.705Z,15.95
2023-03-20T22:03:01.581Z,31.08
2023-03-20T22:09:21.338Z,20.02
2023-03-20T22:14:44.726Z,25.15
2023-03-20T22:23:15.308Z,25.15
2023-03-20T22:41:22.933Z,13.23
2023-03-20T22:44:02.431Z,20.70
2023-03-20T22:46:05.881Z,22.42
2023-03-20T22:48:37.153Z,36.63
2023-03-20T22:51:04.791Z,55.35
2023-03-20T22:53:32.557Z,69.45
2023-03-20T22:56:00.478Z,24.08
2023-03-20T22:58:27.734Z,26.17
2023-03-20T23:00:55.297Z,26.33
2023-03-20T23:03:39.857Z,21.77
2023-03-20T23:06:29.064Z,34.67
2023-03-20T23:08:58.353Z,29.45
2023-03-20T23:11:27.793Z,47.45
2023-03-20T23:13:54.961Z,30.58
2023-03-20T23:16:22.030Z,35.38
2023-03-20T23:18:49.051Z,28.27
2023-03-20T23:21:16.070Z,50.30
2023-03-20T23:23:43.074Z,44.10
2023-03-20T23:26:15.611Z,79.97
2023-03-20T23:28:44.709Z,47.50
2023-03-20T23:31:16.236Z,99.13
2023-03-20T23:33:48.509Z,98.50
2023-03-20T23:36:32.701Z,57.17
2023-03-20T23:39:01.844Z,105.20
2023-03-20T23:41:57.614Z,188.52
2023-03-20T23:44:15.947Z,101.57
2023-03-20T23:46:42.968Z,76.47
2023-03-20T23:49:10.059Z,159.27
2023-03-20T23:51:37.096Z,203.20
2023-03-20T23:54:04.199Z,140.15
2023-03-20T23:56:31.281Z,158.32
2023-03-20T23:59:30.681Z,284.05
